sensor_id;sensor_type;location;lat;lon;timestamp;P1;durP1;ratioP1;P2;durP2;ratioP2
28844;SDS011;15976;47.938;7.758;2023-01-01T00:00:40;21.67;;;10.45;;
28844;SDS011;15976;47.938;7.758;2023-01-01T00:03:07;10.18;;;5.20;;
28844;SDS011;15976;47.938;7.758;2023-01-01T00:05:37;9.70;;;5.57;;
28844;SDS011;15976;47.938;7.758;2023-01-01T00:08:05;15.82;;;8.55;;
28844;SDS011;15976;47.938;7.758;2023-01-01T00:10:32;13.57;;;6.85;;
28844;SDS011;15976;47.938;7.758;2023-01-01T00:12:59;19.80;;;11.25;;
28844;SDS011;15976;47.938;7.758;2023-01-01T00:15:27;10.38;;;5.13;;
28844;SDS011;15976;47.938;7.758;2023-01-01T00:17:54;19.85;;;10.35;;
28844;SDS011;15976;47.938;7.758;2023-01-01T00:20:23;9.15;;;5.05;;
28844;SDS011;15976;47.938;7.758;2023-01-01T00:22:56;12.35;;;6.18;;
28844;SDS011;15976;47.938;7.758;2023-01-01T00:25:23;9.80;;;5.15;;
28844;SDS011;15976;47.938;7.758;2023-01-01T00:27:50;8.98;;;4.70;;
28844;SDS011;15976;47.938;7.758;2023-01-01T00:30:18;5.47;;;3.15;;
28844;SDS011;15976;47.938;7.758;2023-01-01T00:32:45;7.18;;;4.45;;
28844;SDS011;15976;47.938;7.758;2023-01-01T00:35:24;7.47;;;3.45;;
28844;SDS011;15976;47.938;7.758;2023-01-01T00:37:52;6.03;;;3.60;;
28844;SDS011;15976;47.938;7.758;2023-01-01T00:40:20;5.68;;;3.50;;
28844;SDS011;15976;47.938;7.758;2023-01-01T00:42:48;9.90;;;5.60;;
28844;SDS011;15976;47.938;7.758;2023-01-01T00:45:15;4.80;;;3.47;;
28844;SDS011;15976;47.938;7.758;2023-01-01T00:50:15;6.53;;;2.95;;
28844;SDS011;15976;47.938;7.758;2023-01-01T00:52:43;6.18;;;3.95;;
28844;SDS011;15976;47.938;7.758;2023-01-01T00:55:10;7.85;;;4.53;;
28844;SDS011;15976;47.938;7.758;2023-01-01T00:57:37;8.73;;;5.05;;
28844;SDS011;15976;47.938;7.758;2023-01-01T01:00:05;8.40;;;5.00;;
28844;SDS011;15976;47.938;7.758;2023-01-01T01:02:33;9.25;;;5.50;;
28844;SDS011;15976;47.938;7.758;2023-01-01T01:05:00;8.98;;;5.50;;
28844;SDS011;15976;47.938;7.758;2023-01-01T01:07:36;7.97;;;3.90;;
28844;SDS011;15976;47.938;7.758;2023-01-01T01:10:04;7.78;;;3.30;;
28844;SDS011;15976;47.938;7.758;2023-01-01T01:12:32;4.95;;;3.00;;
28844;SDS011;15976;47.938;7.758;2023-01-01T01:15:00;3.85;;;2.53;;
28844;SDS011;15976;47.938;7.758;2023-01-01T01:17:28;5.38;;;3.63;;
28844;SDS011;15976;47.938;7.758;2023-01-01T01:19:55;6.25;;;3.47;;
28844;SDS011;15976;47.938;7.758;2023-01-01T01:22:22;5.60;;;2.40;;
28844;SDS011;15976;47.938;7.758;2023-01-01T01:24:54;3.33;;;2.22;;
28844;SDS011;15976;47.938;7.758;2023-01-01T01:27:22;3.88;;;2.30;;
28844;SDS011;15976;47.938;7.758;2023-01-01T01:29:49;5.60;;;3.00;;
28844;SDS011;15976;47.938;7.758;2023-01-01T01:32:16;4.57;;;3.00;;
28844;SDS011;15976;47.938;7.758;2023-01-01T01:34:43;4.30;;;2.35;;
28844;SDS011;15976;47.938;7.758;2023-01-01T01:37:10;5.00;;;2.80;;
28844;SDS011;15976;47.938;7.758;2023-01-01T01:39:37;5.57;;;2.97;;
28844;SDS011;15976;47.938;7.758;2023-01-01T01:42:05;3.55;;;2.45;;
28844;SDS011;15976;47.938;7.758;2023-01-01T01:50:01;3.78;;;2.50;;
28844;SDS011;15976;47.938;7.758;2023-01-01T01:52:33;4.60;;;2.80;;
28844;SDS011;15976;47.938;7.758;2023-01-01T01:55:03;4.32;;;2.55;;
28844;SDS011;15976;47.938;7.758;2023-01-01T01:57:33;4.90;;;3.58;;
28844;SDS011;15976;47.938;7.758;2023-01-01T02:00:01;4.28;;;2.40;;
28844;SDS011;15976;47.938;7.758;2023-01-01T02:03:20;4.05;;;1.98;;
28844;SDS011;15976;47.938;7.758;2023-01-01T02:05:33;3.58;;;1.92;;
28844;SDS011;15976;47.938;7.758;2023-01-01T02:08:04;3.53;;;1.88;;
28844;SDS011;15976;47.938;7.758;2023-01-01T02:10:33;2.17;;;1.88;;
28844;SDS011;15976;47.938;7.758;2023-01-01T02:13:00;3.33;;;1.70;;
28844;SDS011;15976;47.938;7.758;2023-01-01T02:15:29;3.15;;;1.85;;
28844;SDS011;15976;47.938;7.758;2023-01-01T02:18:31;3.05;;;2.00;;
28844;SDS011;15976;47.938;7.758;2023-01-01T02:21:21;4.38;;;1.88;;
28844;SDS011;15976;47.938;7.758;2023-01-01T02:24:16;4.53;;;1.95;;
28844;SDS011;15976;47.938;7.758;2023-01-01T02:30:00;3.28;;;1.92;;
28844;SDS011;15976;47.938;7.758;2023-01-01T02:32:37;4.00;;;2.60;;
28844;SDS011;15976;47.938;7.758;2023-01-01T02:35:11;4.35;;;2.45;;
28844;SDS011;15976;47.938;7.758;2023-01-01T02:38:16;4.40;;;2.17;;
28844;SDS011;15976;47.938;7.758;2023-01-01T02:40:48;5.20;;;2.40;;
28844;SDS011;15976;47.938;7.758;2023-01-01T02:43:22;5.32;;;2.53;;
28844;SDS011;15976;47.938;7.758;2023-01-01T02:45:51;3.78;;;2.20;;
28844;SDS011;15976;47.938;7.758;2023-01-01T02:48:39;6.22;;;2.72;;
28844;SDS011;15976;47.938;7.758;2023-01-01T02:54:03;6.30;;;2.25;;
28844;SDS011;15976;47.938;7.758;2023-01-01T02:56:31;3.13;;;2.30;;
28844;SDS011;15976;47.938;7.758;2023-01-01T03:05:16;4.72;;;2.75;;
28844;SDS011;15976;47.938;7.758;2023-01-01T03:08:16;4.28;;;2.22;;
28844;SDS011;15976;47.938;7.758;2023-01-01T03:13:32;4.95;;;2.83;;
28844;SDS011;15976;47.938;7.758;2023-01-01T03:16:38;4.68;;;2.05;;
28844;SDS011;15976;47.938;7.758;2023-01-01T03:24:34;2.95;;;1.92;;
28844;SDS011;15976;47.938;7.758;2023-01-01T03:27:13;3.33;;;2.00;;
28844;SDS011;15976;47.938;7.758;2023-01-01T03:29:46;4.05;;;1.90;;
28844;SDS011;15976;47.938;7.758;2023-01-01T03:32:17;2.08;;;1.27;;
28844;SDS011;15976;47.938;7.758;2023-01-01T03:34:52;2.85;;;1.60;;
28844;SDS011;15976;47.938;7.758;2023-01-01T03:37:23;4.13;;;1.63;;
28844;SDS011;15976;47.938;7.758;2023-01-01T03:39:53;2.95;;;1.70;;
28844;SDS011;15976;47.938;7.758;2023-01-01T03:42:31;3.13;;;1.65;;
28844;SDS011;15976;47.938;7.758;2023-01-01T03:47:39;2.63;;;1.85;;
28844;SDS011;15976;47.938;7.758;2023-01-01T03:50:06;2.58;;;1.42;;
28844;SDS011;15976;47.938;7.758;2023-01-01T03:58:11;3.13;;;1.70;;
28844;SDS011;15976;47.938;7.758;2023-01-01T04:00:57;4.63;;;1.40;;
28844;SDS011;15976;47.938;7.758;2023-01-01T04:03:40;3.35;;;1.63;;
28844;SDS011;15976;47.938;7.758;2023-01-01T04:06:08;2.33;;;1.90;;
28844;SDS011;15976;47.938;7.758;2023-01-01T04:08:37;4.90;;;1.70;;
28844;SDS011;15976;47.938;7.758;2023-01-01T04:11:09;3.08;;;1.55;;
28844;SDS011;15976;47.938;7.758;2023-01-01T04:14:02;4.95;;;2.05;;
28844;SDS011;15976;47.938;7.758;2023-01-01T04:16:29;4.80;;;1.88;;
28844;SDS011;15976;47.938;7.758;2023-01-01T04:18:56;3.92;;;1.88;;
28844;SDS011;15976;47.938;7.758;2023-01-01T04:21:23;4.07;;;2.42;;
28844;SDS011;15976;47.938;7.758;2023-01-01T04:23:50;1.80;;;1.63;;
28844;SDS011;15976;47.938;7.758;2023-01-01T04:26:17;3.13;;;1.85;;
28844;SDS011;15976;47.938;7.758;2023-01-01T04:28:44;4.10;;;1.52;;
28844;SDS011;15976;47.938;7.758;2023-01-01T04:31:11;3.42;;;1.73;;
28844;SDS011;15976;47.938;7.758;2023-01-01T04:33:38;2.90;;;1.60;;
28844;SDS011;15976;47.938;7.758;2023-01-01T04:36:06;2.80;;;1.58;;
28844;SDS011;15976;47.938;7.758;2023-01-01T04:38:34;2.08;;;1.40;;
28844;SDS011;15976;47.938;7.758;2023-01-01T04:41:02;2.60;;;1.42;;
28844;SDS011;15976;47.938;7.758;2023-01-01T04:43:30;2.00;;;1.60;;
28844;SDS011;15976;47.938;7.758;2023-01-01T04:45:58;3.38;;;2.35;;
28844;SDS011;15976;47.938;7.758;2023-01-01T04:48:27;3.35;;;1.95;;
28844;SDS011;15976;47.938;7.758;2023-01-01T04:51:01;4.20;;;1.67;;
28844;SDS011;15976;47.938;7.758;2023-01-01T04:53:30;2.35;;;1.90;;
28844;SDS011;15976;47.938;7.758;2023-01-01T04:56:03;5.40;;;1.90;;
28844;SDS011;15976;47.938;7.758;2023-01-01T04:58:31;2.40;;;1.50;;
28844;SDS011;15976;47.938;7.758;2023-01-01T05:00:59;1.90;;;1.30;;
28844;SDS011;15976;47.938;7.758;2023-01-01T05:03:26;2.88;;;1.80;;
28844;SDS011;15976;47.938;7.758;2023-01-01T05:06:03;3.22;;;1.77;;
28844;SDS011;15976;47.938;7.758;2023-01-01T05:08:33;2.72;;;2.00;;
28844;SDS011;15976;47.938;7.758;2023-01-01T05:11:04;9.27;;;1.90;;
28844;SDS011;15976;47.938;7.758;2023-01-01T05:13:33;2.83;;;1.98;;
28844;SDS011;15976;47.938;7.758;2023-01-01T05:16:05;2.75;;;1.75;;
28844;SDS011;15976;47.938;7.758;2023-01-01T05:18:33;3.60;;;1.70;;
28844;SDS011;15976;47.938;7.758;2023-01-01T05:21:02;2.92;;;1.70;;
28844;SDS011;15976;47.938;7.758;2023-01-01T05:23:31;2.53;;;1.60;;
28844;SDS011;15976;47.938;7.758;2023-01-01T05:25:58;2.80;;;2.00;;
28844;SDS011;15976;47.938;7.758;2023-01-01T05:28:25;4.03;;;2.20;;
28844;SDS011;15976;47.938;7.758;2023-01-01T05:30:52;3.70;;;2.35;;
28844;SDS011;15976;47.938;7.758;2023-01-01T05:33:19;3.28;;;1.70;;
28844;SDS011;15976;47.938;7.758;2023-01-01T05:35:51;3.05;;;1.70;;
28844;SDS011;15976;47.938;7.758;2023-01-01T05:38:19;2.65;;;1.67;;
28844;SDS011;15976;47.938;7.758;2023-01-01T05:40:46;2.72;;;1.75;;
28844;SDS011;15976;47.938;7.758;2023-01-01T05:43:15;4.65;;;2.15;;
28844;SDS011;15976;47.938;7.758;2023-01-01T05:45:43;2.90;;;1.80;;
28844;SDS011;15976;47.938;7.758;2023-01-01T05:48:10;3.92;;;1.90;;
28844;SDS011;15976;47.938;7.758;2023-01-01T05:50:37;2.33;;;1.58;;
28844;SDS011;15976;47.938;7.758;2023-01-01T05:53:04;2.20;;;1.60;;
28844;SDS011;15976;47.938;7.758;2023-01-01T05:55:31;5.82;;;2.15;;
28844;SDS011;15976;47.938;7.758;2023-01-01T05:57:58;4.28;;;1.90;;
28844;SDS011;15976;47.938;7.758;2023-01-01T06:00:25;5.10;;;1.80;;
28844;SDS011;15976;47.938;7.758;2023-01-01T06:02:53;2.75;;;1.80;;
28844;SDS011;15976;47.938;7.758;2023-01-01T06:05:20;2.60;;;1.90;;
28844;SDS011;15976;47.938;7.758;2023-01-01T06:07:47;4.82;;;2.10;;
28844;SDS011;15976;47.938;7.758;2023-01-01T06:10:14;5.00;;;1.83;;
28844;SDS011;15976;47.938;7.758;2023-01-01T06:12:41;3.92;;;2.30;;
28844;SDS011;15976;47.938;7.758;2023-01-01T06:15:08;5.53;;;2.33;;
28844;SDS011;15976;47.938;7.758;2023-01-01T06:17:35;5.30;;;2.40;;
28844;SDS011;15976;47.938;7.758;2023-01-01T06:20:03;3.05;;;2.00;;
28844;SDS011;15976;47.938;7.758;2023-01-01T06:22:31;3.42;;;2.13;;
28844;SDS011;15976;47.938;7.758;2023-01-01T06:25:00;3.47;;;1.90;;
28844;SDS011;15976;47.938;7.758;2023-01-01T06:27:27;3.10;;;2.20;;
28844;SDS011;15976;47.938;7.758;2023-01-01T06:29:54;4.97;;;2.28;;
28844;SDS011;15976;47.938;7.758;2023-01-01T06:32:23;3.63;;;2.45;;
28844;SDS011;15976;47.938;7.758;2023-01-01T06:34:49;3.60;;;1.85;;
28844;SDS011;15976;47.938;7.758;2023-01-01T06:37:16;6.15;;;2.30;;
28844;SDS011;15976;47.938;7.758;2023-01-01T06:39:44;4.03;;;2.03;;
28844;SDS011;15976;47.938;7.758;2023-01-01T06:42:11;3.85;;;1.90;;
28844;SDS011;15976;47.938;7.758;2023-01-01T06:44:38;13.18;;;6.22;;
28844;SDS011;15976;47.938;7.758;2023-01-01T06:47:05;6.07;;;3.10;;
28844;SDS011;15976;47.938;7.758;2023-01-01T06:49:32;4.60;;;2.35;;
28844;SDS011;15976;47.938;7.758;2023-01-01T06:51:59;4.90;;;2.40;;
28844;SDS011;15976;47.938;7.758;2023-01-01T06:54:26;2.45;;;1.60;;
28844;SDS011;15976;47.938;7.758;2023-01-01T06:56:53;5.57;;;2.08;;
28844;SDS011;15976;47.938;7.758;2023-01-01T06:59:20;4.25;;;2.30;;
28844;SDS011;15976;47.938;7.758;2023-01-01T07:01:47;3.80;;;2.53;;
28844;SDS011;15976;47.938;7.758;2023-01-01T07:04:14;6.90;;;3.40;;
28844;SDS011;15976;47.938;7.758;2023-01-01T07:06:42;4.30;;;2.50;;
28844;SDS011;15976;47.938;7.758;2023-01-01T07:09:09;3.65;;;2.53;;
28844;SDS011;15976;47.938;7.758;2023-01-01T07:11:36;6.15;;;3.28;;
28844;SDS011;15976;47.938;7.758;2023-01-01T07:14:03;7.32;;;3.25;;
28844;SDS011;15976;47.938;7.758;2023-01-01T07:16:30;5.20;;;2.30;;
28844;SDS011;15976;47.938;7.758;2023-01-01T07:18:57;4.97;;;2.63;;
28844;SDS011;15976;47.938;7.758;2023-01-01T07:21:31;4.25;;;2.38;;
28844;SDS011;15976;47.938;7.758;2023-01-01T07:24:16;3.25;;;2.50;;
28844;SDS011;15976;47.938;7.758;2023-01-01T07:26:44;4.70;;;2.47;;
28844;SDS011;15976;47.938;7.758;2023-01-01T07:29:11;6.63;;;2.55;;
28844;SDS011;15976;47.938;7.758;2023-01-01T07:31:39;3.22;;;2.30;;
28844;SDS011;15976;47.938;7.758;2023-01-01T07:34:10;4.63;;;2.53;;
28844;SDS011;15976;47.938;7.758;2023-01-01T07:36:39;4.25;;;2.55;;
28844;SDS011;15976;47.938;7.758;2023-01-01T07:39:07;6.07;;;3.17;;
28844;SDS011;15976;47.938;7.758;2023-01-01T07:41:34;5.78;;;2.60;;
28844;SDS011;15976;47.938;7.758;2023-01-01T07:44:01;3.83;;;2.30;;
28844;SDS011;15976;47.938;7.758;2023-01-01T07:46:29;4.32;;;2.10;;
28844;SDS011;15976;47.938;7.758;2023-01-01T07:48:56;4.28;;;2.20;;
28844;SDS011;15976;47.938;7.758;2023-01-01T07:51:23;6.53;;;2.70;;
28844;SDS011;15976;47.938;7.758;2023-01-01T07:53:51;5.00;;;3.25;;
28844;SDS011;15976;47.938;7.758;2023-01-01T07:56:17;3.80;;;2.35;;
28844;SDS011;15976;47.938;7.758;2023-01-01T07:58:44;2.72;;;2.15;;
28844;SDS011;15976;47.938;7.758;2023-01-01T08:01:12;4.50;;;2.65;;
28844;SDS011;15976;47.938;7.758;2023-01-01T08:03:40;5.30;;;2.95;;
28844;SDS011;15976;47.938;7.758;2023-01-01T08:06:11;5.03;;;2.63;;
28844;SDS011;15976;47.938;7.758;2023-01-01T08:08:39;4.63;;;2.50;;
28844;SDS011;15976;47.938;7.758;2023-01-01T08:11:06;5.20;;;2.72;;
28844;SDS011;15976;47.938;7.758;2023-01-01T08:13:33;7.95;;;3.13;;
28844;SDS011;15976;47.938;7.758;2023-01-01T08:16:00;15.57;;;7.18;;
28844;SDS011;15976;47.938;7.758;2023-01-01T08:18:28;6.45;;;4.13;;
28844;SDS011;15976;47.938;7.758;2023-01-01T08:20:55;6.35;;;2.88;;
28844;SDS011;15976;47.938;7.758;2023-01-01T08:23:22;7.78;;;4.47;;
28844;SDS011;15976;47.938;7.758;2023-01-01T08:25:50;5.68;;;3.63;;
28844;SDS011;15976;47.938;7.758;2023-01-01T08:28:18;5.40;;;3.17;;
28844;SDS011;15976;47.938;7.758;2023-01-01T08:30:46;5.70;;;3.38;;
28844;SDS011;15976;47.938;7.758;2023-01-01T08:33:13;5.40;;;3.17;;
28844;SDS011;15976;47.938;7.758;2023-01-01T08:35:40;5.45;;;3.03;;
28844;SDS011;15976;47.938;7.758;2023-01-01T08:38:11;5.53;;;2.70;;
28844;SDS011;15976;47.938;7.758;2023-01-01T08:40:38;5.30;;;2.97;;
28844;SDS011;15976;47.938;7.758;2023-01-01T08:43:05;4.93;;;3.17;;
28844;SDS011;15976;47.938;7.758;2023-01-01T08:45:32;4.15;;;2.72;;
28844;SDS011;15976;47.938;7.758;2023-01-01T08:48:00;9.77;;;4.43;;
28844;SDS011;15976;47.938;7.758;2023-01-01T08:50:27;8.02;;;2.92;;
28844;SDS011;15976;47.938;7.758;2023-01-01T08:52:54;6.50;;;2.88;;
28844;SDS011;15976;47.938;7.758;2023-01-01T08:55:22;4.32;;;2.97;;
28844;SDS011;15976;47.938;7.758;2023-01-01T08:57:49;34.13;;;16.02;;
28844;SDS011;15976;47.938;7.758;2023-01-01T09:00:16;26.50;;;13.82;;
28844;SDS011;15976;47.938;7.758;2023-01-01T09:02:44;10.07;;;6.07;;
28844;SDS011;15976;47.938;7.758;2023-01-01T09:05:11;8.43;;;4.43;;
28844;SDS011;15976;47.938;7.758;2023-01-01T09:07:38;10.27;;;5.28;;
28844;SDS011;15976;47.938;7.758;2023-01-01T09:10:05;10.20;;;4.90;;
28844;SDS011;15976;47.938;7.758;2023-01-01T09:12:32;7.28;;;3.63;;
28844;SDS011;15976;47.938;7.758;2023-01-01T09:15:01;8.43;;;3.63;;
28844;SDS011;15976;47.938;7.758;2023-01-01T09:17:28;8.57;;;4.57;;
28844;SDS011;15976;47.938;7.758;2023-01-01T09:19:55;14.63;;;6.28;;
28844;SDS011;15976;47.938;7.758;2023-01-01T09:22:22;8.57;;;5.03;;
28844;SDS011;15976;47.938;7.758;2023-01-01T09:24:49;8.60;;;4.28;;
28844;SDS011;15976;47.938;7.758;2023-01-01T09:27:16;17.02;;;15.23;;
28844;SDS011;15976;47.938;7.758;2023-01-01T09:29:43;6.28;;;3.40;;
28844;SDS011;15976;47.938;7.758;2023-01-01T09:32:10;6.50;;;3.47;;
28844;SDS011;15976;47.938;7.758;2023-01-01T09:34:37;6.80;;;3.70;;
28844;SDS011;15976;47.938;7.758;2023-01-01T09:37:04;12.48;;;6.22;;
28844;SDS011;15976;47.938;7.758;2023-01-01T09:39:31;8.05;;;3.75;;
28844;SDS011;15976;47.938;7.758;2023-01-01T09:44:45;6.60;;;2.90;;
28844;SDS011;15976;47.938;7.758;2023-01-01T09:47:43;3.47;;;1.80;;
28844;SDS011;15976;47.938;7.758;2023-01-01T09:52:57;5.40;;;2.97;;
28844;SDS011;15976;47.938;7.758;2023-01-01T09:55:48;6.35;;;3.53;;
28844;SDS011;15976;47.938;7.758;2023-01-01T09:58:30;7.87;;;3.10;;
28844;SDS011;15976;47.938;7.758;2023-01-01T10:03:56;4.68;;;3.00;;
28844;SDS011;15976;47.938;7.758;2023-01-01T10:06:43;6.95;;;2.53;;
28844;SDS011;15976;47.938;7.758;2023-01-01T10:11:56;5.72;;;2.35;;
28844;SDS011;15976;47.938;7.758;2023-01-01T10:14:37;4.93;;;3.10;;
28844;SDS011;15976;47.938;7.758;2023-01-01T10:20:19;3.50;;;2.10;;
28844;SDS011;15976;47.938;7.758;2023-01-01T10:22:59;6.45;;;2.80;;
28844;SDS011;15976;47.938;7.758;2023-01-01T10:25:32;8.93;;;3.63;;
28844;SDS011;15976;47.938;7.758;2023-01-01T10:28:02;6.20;;;3.00;;
28844;SDS011;15976;47.938;7.758;2023-01-01T10:30:32;5.78;;;2.95;;
28844;SDS011;15976;47.938;7.758;2023-01-01T10:32:59;3.22;;;2.10;;
28844;SDS011;15976;47.938;7.758;2023-01-01T10:35:48;4.88;;;2.55;;
28844;SDS011;15976;47.938;7.758;2023-01-01T10:38:22;4.25;;;2.42;;
28844;SDS011;15976;47.938;7.758;2023-01-01T10:43:46;6.70;;;2.45;;
28844;SDS011;15976;47.938;7.758;2023-01-01T10:46:27;4.70;;;2.33;;
28844;SDS011;15976;47.938;7.758;2023-01-01T10:49:04;4.45;;;2.30;;
28844;SDS011;15976;47.938;7.758;2023-01-01T10:51:51;4.00;;;2.63;;
28844;SDS011;15976;47.938;7.758;2023-01-01T10:54:40;7.70;;;2.70;;
28844;SDS011;15976;47.938;7.758;2023-01-01T10:57:19;4.50;;;2.67;;
28844;SDS011;15976;47.938;7.758;2023-01-01T11:03:08;8.52;;;4.10;;
28844;SDS011;15976;47.938;7.758;2023-01-01T11:05:37;5.18;;;3.15;;
28844;SDS011;15976;47.938;7.758;2023-01-01T11:08:14;4.53;;;2.65;;
28844;SDS011;15976;47.938;7.758;2023-01-01T11:10:48;5.13;;;2.50;;
28844;SDS011;15976;47.938;7.758;2023-01-01T11:13:19;6.53;;;3.35;;
28844;SDS011;15976;47.938;7.758;2023-01-01T11:15:47;5.53;;;2.78;;
28844;SDS011;15976;47.938;7.758;2023-01-01T11:18:15;9.10;;;2.67;;
28844;SDS011;15976;47.938;7.758;2023-01-01T11:20:50;7.67;;;2.70;;
28844;SDS011;15976;47.938;7.758;2023-01-01T11:23:23;5.18;;;3.03;;
28844;SDS011;15976;47.938;7.758;2023-01-01T11:28:38;7.20;;;3.40;;
28844;SDS011;15976;47.938;7.758;2023-01-01T11:31:17;4.28;;;2.50;;
28844;SDS011;15976;47.938;7.758;2023-01-01T11:33:52;3.80;;;2.50;;
28844;SDS011;15976;47.938;7.758;2023-01-01T11:36:21;4.57;;;2.25;;
28844;SDS011;15976;47.938;7.758;2023-01-01T11:41:49;6.50;;;2.53;;
28844;SDS011;15976;47.938;7.758;2023-01-01T11:44:37;5.65;;;2.50;;
28844;SDS011;15976;47.938;7.758;2023-01-01T11:47:05;4.22;;;2.30;;
28844;SDS011;15976;47.938;7.758;2023-01-01T11:49:42;3.85;;;1.90;;
28844;SDS011;15976;47.938;7.758;2023-01-01T11:52:25;4.20;;;2.13;;
28844;SDS011;15976;47.938;7.758;2023-01-01T11:54:59;5.93;;;3.25;;
28844;SDS011;15976;47.938;7.758;2023-01-01T11:57:36;4.72;;;2.50;;
28844;SDS011;15976;47.938;7.758;2023-01-01T12:02:53;4.03;;;2.70;;
28844;SDS011;15976;47.938;7.758;2023-01-01T12:05:27;4.93;;;2.40;;
28844;SDS011;15976;47.938;7.758;2023-01-01T12:08:24;5.22;;;1.80;;
28844;SDS011;15976;47.938;7.758;2023-01-01T12:10:59;7.03;;;3.00;;
28844;SDS011;15976;47.938;7.758;2023-01-01T12:13:32;8.65;;;2.90;;
28844;SDS011;15976;47.938;7.758;2023-01-01T12:21:13;9.73;;;2.90;;
28844;SDS011;15976;47.938;7.758;2023-01-01T12:23:42;9.60;;;2.67;;
28844;SDS011;15976;47.938;7.758;2023-01-01T12:26:13;7.85;;;2.60;;
28844;SDS011;15976;47.938;7.758;2023-01-01T12:34:47;3.10;;;1.77;;
28844;SDS011;15976;47.938;7.758;2023-01-01T12:43:08;8.95;;;2.38;;
28844;SDS011;15976;47.938;7.758;2023-01-01T12:48:41;5.82;;;2.55;;
28844;SDS011;15976;47.938;7.758;2023-01-01T12:52:15;4.60;;;2.20;;
28844;SDS011;15976;47.938;7.758;2023-01-01T12:57:17;5.15;;;2.75;;
28844;SDS011;15976;47.938;7.758;2023-01-01T12:59:56;4.47;;;2.47;;
28844;SDS011;15976;47.938;7.758;2023-01-01T13:02:28;4.10;;;2.70;;
28844;SDS011;15976;47.938;7.758;2023-01-01T13:05:00;5.95;;;2.20;;
28844;SDS011;15976;47.938;7.758;2023-01-01T13:07:37;3.70;;;2.13;;
28844;SDS011;15976;47.938;7.758;2023-01-01T13:10:11;5.22;;;2.50;;
28844;SDS011;15976;47.938;7.758;2023-01-01T13:12:52;6.15;;;3.33;;
28844;SDS011;15976;47.938;7.758;2023-01-01T13:18:04;7.07;;;2.93;;
28844;SDS011;15976;47.938;7.758;2023-01-01T13:39:58;3.90;;;2.20;;
28844;SDS011;15976;47.938;7.758;2023-01-01T13:56:42;6.45;;;2.50;;
28844;SDS011;15976;47.938;7.758;2023-01-01T13:59:22;6.28;;;2.58;;
28844;SDS011;15976;47.938;7.758;2023-01-01T14:02:47;4.35;;;2.60;;
28844;SDS011;15976;47.938;7.758;2023-01-01T14:05:35;6.13;;;2.58;;
28844;SDS011;15976;47.938;7.758;2023-01-01T14:08:33;5.22;;;2.47;;
28844;SDS011;15976;47.938;7.758;2023-01-01T14:11:02;8.13;;;3.83;;
28844;SDS011;15976;47.938;7.758;2023-01-01T14:13:50;5.32;;;2.30;;
28844;SDS011;15976;47.938;7.758;2023-01-01T14:16:17;5.93;;;3.47;;
28844;SDS011;15976;47.938;7.758;2023-01-01T14:18:45;5.13;;;2.75;;
28844;SDS011;15976;47.938;7.758;2023-01-01T14:21:38;5.18;;;2.60;;
28844;SDS011;15976;47.938;7.758;2023-01-01T14:24:05;4.70;;;2.97;;
28844;SDS011;15976;47.938;7.758;2023-01-01T14:26:35;6.03;;;3.22;;
28844;SDS011;15976;47.938;7.758;2023-01-01T14:29:05;7.80;;;4.35;;
28844;SDS011;15976;47.938;7.758;2023-01-01T14:31:41;9.23;;;3.90;;
28844;SDS011;15976;47.938;7.758;2023-01-01T14:34:32;8.25;;;3.67;;
28844;SDS011;15976;47.938;7.758;2023-01-01T14:37:04;8.40;;;2.80;;
28844;SDS011;15976;47.938;7.758;2023-01-01T14:39:49;12.40;;;3.50;;
28844;SDS011;15976;47.938;7.758;2023-01-01T14:42:31;6.35;;;3.22;;
28844;SDS011;15976;47.938;7.758;2023-01-01T14:45:01;4.68;;;2.45;;
28844;SDS011;15976;47.938;7.758;2023-01-01T14:47:29;8.93;;;2.53;;
28844;SDS011;15976;47.938;7.758;2023-01-01T14:50:02;4.10;;;2.65;;
28844;SDS011;15976;47.938;7.758;2023-01-01T14:52:36;6.15;;;2.53;;
28844;SDS011;15976;47.938;7.758;2023-01-01T14:55:04;5.57;;;2.30;;
28844;SDS011;15976;47.938;7.758;2023-01-01T14:57:34;4.43;;;2.10;;
28844;SDS011;15976;47.938;7.758;2023-01-01T15:00:06;5.10;;;2.50;;
28844;SDS011;15976;47.938;7.758;2023-01-01T15:02:46;8.90;;;3.30;;
28844;SDS011;15976;47.938;7.758;2023-01-01T15:05:29;5.47;;;2.58;;
28844;SDS011;15976;47.938;7.758;2023-01-01T15:08:03;5.53;;;2.80;;
28844;SDS011;15976;47.938;7.758;2023-01-01T15:10:32;4.13;;;2.45;;
28844;SDS011;15976;47.938;7.758;2023-01-01T15:13:03;10.57;;;3.38;;
28844;SDS011;15976;47.938;7.758;2023-01-01T15:21:09;6.45;;;3.08;;
28844;SDS011;15976;47.938;7.758;2023-01-01T15:23:38;5.55;;;2.50;;
28844;SDS011;15976;47.938;7.758;2023-01-01T15:26:12;7.65;;;2.85;;
28844;SDS011;15976;47.938;7.758;2023-01-01T15:28:56;12.38;;;2.83;;
28844;SDS011;15976;47.938;7.758;2023-01-01T15:31:38;4.05;;;2.15;;
28844;SDS011;15976;47.938;7.758;2023-01-01T15:34:16;5.32;;;2.30;;
28844;SDS011;15976;47.938;7.758;2023-01-01T15:36:50;4.32;;;2.03;;
28844;SDS011;15976;47.938;7.758;2023-01-01T15:39:19;5.15;;;2.40;;
28844;SDS011;15976;47.938;7.758;2023-01-01T15:41:48;5.55;;;2.00;;
28844;SDS011;15976;47.938;7.758;2023-01-01T15:44:27;5.57;;;2.28;;
28844;SDS011;15976;47.938;7.758;2023-01-01T15:47:12;6.00;;;1.90;;
28844;SDS011;15976;47.938;7.758;2023-01-01T15:49:41;4.93;;;2.33;;
28844;SDS011;15976;47.938;7.758;2023-01-01T15:52:15;9.13;;;2.40;;
28844;SDS011;15976;47.938;7.758;2023-01-01T15:54:49;6.00;;;2.30;;
28844;SDS011;15976;47.938;7.758;2023-01-01T15:57:18;3.55;;;2.28;;
28844;SDS011;15976;47.938;7.758;2023-01-01T15:59:48;7.05;;;3.05;;
28844;SDS011;15976;47.938;7.758;2023-01-01T16:02:19;5.07;;;2.90;;
28844;SDS011;15976;47.938;7.758;2023-01-01T16:04:51;6.20;;;2.55;;
28844;SDS011;15976;47.938;7.758;2023-01-01T16:07:19;3.97;;;2.45;;
28844;SDS011;15976;47.938;7.758;2023-01-01T16:09:49;6.25;;;2.90;;
28844;SDS011;15976;47.938;7.758;2023-01-01T16:12:23;4.10;;;2.55;;
28844;SDS011;15976;47.938;7.758;2023-01-01T16:14:54;5.57;;;3.08;;
28844;SDS011;15976;47.938;7.758;2023-01-01T16:17:22;7.13;;;3.15;;
28844;SDS011;15976;47.938;7.758;2023-01-01T16:19:49;12.15;;;4.13;;
28844;SDS011;15976;47.938;7.758;2023-01-01T16:22:17;11.55;;;3.78;;
28844;SDS011;15976;47.938;7.758;2023-01-01T16:24:45;8.07;;;3.42;;
28844;SDS011;15976;47.938;7.758;2023-01-01T16:27:13;6.50;;;4.10;;
28844;SDS011;15976;47.938;7.758;2023-01-01T16:29:40;9.30;;;4.95;;
28844;SDS011;15976;47.938;7.758;2023-01-01T16:32:16;9.73;;;3.85;;
28844;SDS011;15976;47.938;7.758;2023-01-01T16:34:43;7.97;;;3.75;;
28844;SDS011;15976;47.938;7.758;2023-01-01T16:37:10;6.20;;;3.88;;
28844;SDS011;15976;47.938;7.758;2023-01-01T16:39:37;7.22;;;4.75;;
28844;SDS011;15976;47.938;7.758;2023-01-01T16:42:04;71.30;;;31.13;;
28844;SDS011;15976;47.938;7.758;2023-01-01T16:44:34;49.28;;;25.25;;
28844;SDS011;15976;47.938;7.758;2023-01-01T16:47:06;33.40;;;17.15;;
28844;SDS011;15976;47.938;7.758;2023-01-01T16:49:33;14.52;;;7.47;;
28844;SDS011;15976;47.938;7.758;2023-01-01T16:52:01;8.98;;;5.22;;
28844;SDS011;15976;47.938;7.758;2023-01-01T16:54:28;11.88;;;6.03;;
28844;SDS011;15976;47.938;7.758;2023-01-01T16:56:55;7.35;;;5.18;;
28844;SDS011;15976;47.938;7.758;2023-01-01T16:59:22;6.45;;;4.38;;
28844;SDS011;15976;47.938;7.758;2023-01-01T17:01:49;10.73;;;4.82;;
28844;SDS011;15976;47.938;7.758;2023-01-01T17:04:16;8.65;;;5.38;;
28844;SDS011;15976;47.938;7.758;2023-01-01T17:06:44;14.23;;;5.68;;
28844;SDS011;15976;47.938;7.758;2023-01-01T17:09:11;7.53;;;5.30;;
28844;SDS011;15976;47.938;7.758;2023-01-01T17:11:38;11.65;;;7.40;;
28844;SDS011;15976;47.938;7.758;2023-01-01T17:14:06;8.07;;;4.93;;
28844;SDS011;15976;47.938;7.758;2023-01-01T17:16:35;7.53;;;3.70;;
28844;SDS011;15976;47.938;7.758;2023-01-01T17:19:05;6.25;;;3.45;;
28844;SDS011;15976;47.938;7.758;2023-01-01T17:21:44;8.88;;;4.50;;